createdAt,value
2019-03-03T00:01:44.934Z,98875.39
2019-03-03T00:04:15.217Z,98875.92
2019-03-03T00:06:45.503Z,98875.92
2019-03-03T00:09:15.879Z,98870.22
2019-03-03T00:11:46.747Z,98864.80
2019-03-03T00:14:17.020Z,98865.58
2019-03-03T00:16:47.233Z,98863.92
2019-03-03T00:19:17.510Z,98863.92
2019-03-03T00:21:49.692Z,98858.42
2019-03-03T00:24:20.009Z,98867.89
2019-03-03T00:26:50.781Z,98861.90
2019-03-03T00:29:21.374Z,98853.77
2019-03-03T00:31:51.647Z,98845.89
2019-03-03T00:34:22.221Z,98849.27
2019-03-03T00:37:10.329Z,98841.37
2019-03-03T00:40:11.955Z,98837.14
2019-03-03T00:42:53.975Z,98832.97
2019-03-03T00:45:35.040Z,98834.20
2019-03-03T00:48:20.845Z,98841.63
2019-03-03T00:51:09.132Z,98836.65
2019-03-03T00:54:05.068Z,98830.62
2019-03-03T00:56:44.631Z,98824.41
2019-03-03T00:59:34.507Z,98819.30
2019-03-03T01:02:14.850Z,98820.99
2019-03-03T01:05:04.117Z,98816.83
2019-03-03T01:07:52.070Z,98818.72
2019-03-03T01:10:48.208Z,98813.57
2019-03-03T01:13:28.260Z,98816.20
2019-03-03T01:16:20.888Z,98825.75
2019-03-03T01:18:59.303Z,98835.07
2019-03-03T01:21:37.851Z,98839.84
2019-03-03T01:24:30.100Z,98842.08
2019-03-03T01:27:00.691Z,98849.81
2019-03-03T01:29:30.902Z,98849.11
2019-03-03T01:32:02.345Z,98841.47
2019-03-03T01:34:33.206Z,98839.42
2019-03-03T01:37:04.859Z,98840.40
2019-03-03T01:39:35.689Z,98837.73
2019-03-03T01:42:05.899Z,98843.78
2019-03-03T01:44:36.164Z,98832.72
2019-03-03T01:47:06.483Z,98837.02
2019-03-03T01:49:37.703Z,98831.25
2019-03-03T01:52:08.972Z,98836.97
2019-03-03T01:54:39.179Z,98837.02
2019-03-03T01:57:09.436Z,98827.77
2019-03-03T01:59:39.713Z,98828.58
2019-03-03T02:02:10.090Z,98819.34
2019-03-03T02:04:40.359Z,98812.94
2019-03-03T02:07:10.973Z,98807.66
2019-03-03T02:09:41.624Z,98807.93
2019-03-03T02:12:12.009Z,98800.94
2019-03-03T02:14:42.356Z,98789.02
2019-03-03T02:17:13.799Z,98787.78
2019-03-03T02:19:45.023Z,98794.55
2019-03-03T02:22:15.923Z,98802.91
2019-03-03T02:24:46.141Z,98797.60
2019-03-03T02:27:16.406Z,98806.66
2019-03-03T02:29:46.611Z,98807.83
2019-03-03T02:32:16.843Z,98805.09
2019-03-03T02:34:47.286Z,98803.34
2019-03-03T02:37:17.773Z,98802.70
2019-03-03T02:39:48.611Z,98801.36
2019-03-03T02:42:19.458Z,98799.67
2019-03-03T02:44:50.461Z,98798.09
2019-03-03T02:47:20.758Z,98792.16
2019-03-03T02:49:51.015Z,98785.45
2019-03-03T02:52:21.289Z,98785.45
2019-03-03T02:54:51.576Z,98793.91
2019-03-03T02:57:21.837Z,98790.63
2019-03-03T02:59:52.335Z,98788.70
2019-03-03T03:02:40.892Z,98785.81
2019-03-03T03:05:11.290Z,98783.14
2019-03-03T03:07:49.653Z,98779.90
2019-03-03T03:10:29.424Z,98767.52
2019-03-03T03:13:07.615Z,98767.52
2019-03-03T03:15:49.867Z,98773.59
2019-03-03T03:19:56.755Z,98771.18
2019-03-03T03:22:46.225Z,98771.22
2019-03-03T03:25:26.676Z,98766.43
2019-03-03T03:28:10.495Z,98766.77
2019-03-03T03:31:03.305Z,98774.18
2019-03-03T03:34:11.277Z,98775.26
2019-03-03T03:37:03.316Z,98761.41
2019-03-03T03:39:50.006Z,98782.53
2019-03-03T03:42:26.856Z,98778.68
2019-03-03T03:45:16.099Z,98778.89
2019-03-03T03:48:15.001Z,98776.67
2019-03-03T03:50:52.226Z,98764.33
2019-03-03T03:53:41.383Z,98765.73
2019-03-03T03:56:19.195Z,98769.73
2019-03-03T03:59:14.213Z,98768.05
2019-03-03T04:01:58.613Z,98765.38
2019-03-03T04:04:53.799Z,98774.77
2019-03-03T04:07:30.212Z,98774.77
2019-03-03T04:10:06.353Z,98776.19
2019-03-03T04:13:00.469Z,98772.83
2019-03-03T04:16:01.836Z,98770.56
2019-03-03T04:18:49.714Z,98771.84
2019-03-03T04:21:29.876Z,98772.95
2019-03-03T04:24:22.767Z,98769.02
2019-03-03T04:27:21.274Z,98769.02
2019-03-03T04:30:10.398Z,98778.62
2019-03-03T04:32:51.199Z,98773.34
2019-03-03T04:35:43.900Z,98772.84
2019-03-03T04:38:20.087Z,98766.40
2019-03-03T04:41:02.627Z,98764.03
2019-03-03T04:43:58.299Z,98768.88
2019-03-03T04:46:56.615Z,98768.91
2019-03-03T04:49:48.973Z,98776.55
2019-03-03T04:52:26.764Z,98776.97
2019-03-03T04:55:15.988Z,98777.73
2019-03-03T04:58:05.626Z,98770.39
2019-03-03T05:00:55.235Z,98772.91
2019-03-03T05:03:59.877Z,98769.28
2019-03-03T05:06:35.152Z,98770.43
2019-03-03T05:09:22.154Z,98764.78
2019-03-03T05:12:48.949Z,98767.22
2019-03-03T05:15:35.956Z,98751.33
2019-03-03T05:18:15.998Z,98759.97
2019-03-03T05:20:48.331Z,98768.29
2019-03-03T05:23:18.514Z,98765.30
2019-03-03T05:25:48.796Z,98762.62
2019-03-03T05:28:19.189Z,98763.95
2019-03-03T05:30:49.668Z,98761.50
2019-03-03T05:33:19.971Z,98762.00
2019-03-03T05:35:50.635Z,98762.63
2019-03-03T05:38:20.871Z,98754.29
2019-03-03T05:40:51.514Z,98758.58
2019-03-03T05:43:22.154Z,98755.44
2019-03-03T05:45:52.787Z,98754.69
2019-03-03T05:48:24.181Z,98754.67
2019-03-03T05:50:54.457Z,98747.67
2019-03-03T05:53:25.090Z,98734.30
2019-03-03T05:55:55.768Z,98742.73
2019-03-03T05:58:26.401Z,98743.67
2019-03-03T06:00:57.296Z,98747.23
2019-03-03T06:03:28.087Z,98750.78
2019-03-03T06:05:58.769Z,98750.36
2019-03-03T06:08:29.414Z,98749.63
2019-03-03T06:10:59.737Z,98751.98
2019-03-03T06:13:30.408Z,98748.93
2019-03-03T06:16:00.631Z,98748.27
2019-03-03T06:18:31.413Z,98746.54
2019-03-03T06:21:03.588Z,98750.23
2019-03-03T06:23:34.000Z,98751.19
2019-03-03T06:26:04.261Z,98752.61
2019-03-03T06:28:34.630Z,98756.23
2019-03-03T06:31:04.935Z,98762.48
2019-03-03T06:33:35.535Z,98759.28
2019-03-03T06:36:05.765Z,98760.31
2019-03-03T06:38:36.467Z,98759.86
2019-03-03T06:41:07.691Z,98761.48
2019-03-03T06:43:38.571Z,98760.47
2019-03-03T06:46:09.491Z,98756.56
2019-03-03T06:48:39.824Z,98751.64
2019-03-03T06:51:10.082Z,98759.81
2019-03-03T06:53:40.666Z,98755.08
2019-03-03T06:56:11.543Z,98759.79
2019-03-03T06:58:42.548Z,98752.78
2019-03-03T07:01:13.988Z,98758.66
2019-03-03T07:03:44.856Z,98765.39
2019-03-03T07:06:15.103Z,98767.77
2019-03-03T07:08:46.406Z,98766.44
2019-03-03T07:11:16.591Z,98755.42
2019-03-03T07:13:46.890Z,98749.34
2019-03-03T07:16:17.488Z,98749.42
2019-03-03T07:18:48.761Z,98751.72
2019-03-03T07:21:19.681Z,98745.52
2019-03-03T07:23:50.108Z,98749.49
2019-03-03T07:26:21.455Z,98754.72
2019-03-03T07:28:51.791Z,98766.55
2019-03-03T07:31:22.060Z,98769.56
2019-03-03T07:33:55.543Z,98775.06
2019-03-03T07:36:25.854Z,98789.83
2019-03-03T07:38:56.132Z,98784.92
2019-03-03T07:41:27.802Z,98786.14
2019-03-03T07:43:58.138Z,98785.72
2019-03-03T07:46:28.379Z,98781.79
2019-03-03T07:48:58.570Z,98776.83
2019-03-03T07:51:29.672Z,98776.09
2019-03-03T07:54:00.245Z,98778.17
2019-03-03T07:56:30.939Z,98780.66
2019-03-03T07:59:01.922Z,98783.73
2019-03-03T08:01:33.060Z,98779.91
2019-03-03T08:04:03.296Z,98774.05
2019-03-03T08:06:33.606Z,98775.93
2019-03-03T08:09:05.314Z,98775.93
2019-03-03T08:11:36.054Z,98774.12
2019-03-03T08:14:06.308Z,98772.83
2019-03-03T08:16:37.262Z,98765.44
2019-03-03T08:19:08.203Z,98766.92
2019-03-03T08:21:38.375Z,98761.09
2019-03-03T08:24:08.631Z,98759.80
2019-03-03T08:26:39.264Z,98764.70
2019-03-03T08:29:09.587Z,98763.61
2019-03-03T08:31:39.757Z,98760.23
2019-03-03T08:34:10.346Z,98762.87
2019-03-03T08:36:40.883Z,98767.38
2019-03-03T08:39:11.395Z,98754.14
2019-03-03T08:41:46.447Z,98761.67
2019-03-03T08:44:19.685Z,98754.39
2019-03-03T08:47:08.114Z,98751.85
2019-03-03T08:50:09.318Z,98750.61
2019-03-03T08:53:08.391Z,98750.61
2019-03-03T08:56:03.525Z,98756.33
2019-03-03T08:59:05.102Z,98741.98
2019-03-03T09:02:04.956Z,98740.27
2019-03-03T09:04:46.447Z,98731.13
2019-03-03T09:07:38.812Z,98730.87
2019-03-03T09:10:14.952Z,98735.92
2019-03-03T09:12:57.648Z,98739.07
2019-03-03T09:15:43.048Z,98744.90
2019-03-03T09:18:28.783Z,98748.02
2019-03-03T09:21:18.007Z,98741.41
2019-03-03T09:24:02.539Z,98744.61
2019-03-03T09:26:46.506Z,98738.94
2019-03-03T09:29:35.008Z,98744.30
2019-03-03T09:32:14.216Z,98737.70
2019-03-03T09:35:18.844Z,98726.97
2019-03-03T09:38:10.887Z,98723.55
2019-03-03T09:40:47.272Z,98721.30
2019-03-03T09:43:42.278Z,98718.39
2019-03-03T09:46:22.479Z,98718.37
2019-03-03T09:49:12.006Z,98710.47
2019-03-03T09:52:10.274Z,98714.09
2019-03-03T09:54:53.541Z,98715.64
2019-03-03T09:57:48.506Z,98721.06
2019-03-03T10:00:43.676Z,98731.20
2019-03-03T10:03:39.350Z,98726.43
2019-03-03T10:06:41.116Z,98724.12
2019-03-03T10:09:18.316Z,98727.20
2019-03-03T10:12:03.226Z,98718.77
2019-03-03T10:14:41.800Z,98721.75
2019-03-03T10:17:30.129Z,98721.03
2019-03-03T10:20:18.010Z,98720.72
2019-03-03T10:23:06.389Z,98723.88
2019-03-03T10:25:54.504Z,98718.66
2019-03-03T10:28:33.572Z,98721.30
2019-03-03T10:31:15.940Z,98728.63
2019-03-03T10:34:11.643Z,98724.73
2019-03-03T10:36:48.540Z,98711.67
2019-03-03T10:39:35.092Z,98714.23
2019-03-03T10:42:23.440Z,98716.70
2019-03-03T10:45:18.588Z,98710.18
2019-03-03T10:48:13.931Z,98702.35
2019-03-03T10:51:09.340Z,98698.01
2019-03-03T10:53:45.797Z,98691.46
2019-03-03T10:56:47.811Z,98692.31
2019-03-03T10:59:35.366Z,98690.44
2019-03-03T11:02:24.773Z,98680.68
2019-03-03T11:05:26.475Z,98682.03
2019-03-03T11:08:16.250Z,98692.15
2019-03-03T11:11:00.401Z,98684.32
2019-03-03T11:13:38.864Z,98685.31
2019-03-03T11:16:24.729Z,98678.17
2019-03-03T11:19:17.359Z,98667.16
2019-03-03T11:22:12.771Z,98663.62
2019-03-03T11:24:52.823Z,98644.59
2019-03-03T11:27:43.903Z,98626.63
2019-03-03T11:30:29.534Z,98621.14
2019-03-03T11:33:17.759Z,98623.94
2019-03-03T11:36:25.349Z,98615.52
2019-03-03T11:39:14.946Z,98618.09
2019-03-03T11:41:53.249Z,98614.56
2019-03-03T11:44:41.650Z,98619.02
2019-03-03T11:47:24.573Z,98614.87
2019-03-03T11:50:16.958Z,98611.70
2019-03-03T11:52:57.272Z,98595.31
2019-03-03T11:55:49.504Z,98596.81
2019-03-03T11:58:44.825Z,98597.42
2019-03-03T12:01:34.048Z,98593.41
2019-03-03T12:04:27.954Z,98586.28
2019-03-03T12:07:08.602Z,98579.72
2019-03-03T12:09:48.276Z,98574.79
2019-03-03T12:12:40.867Z,98572.77
2019-03-03T12:15:30.536Z,98556.62
2019-03-03T12:18:19.513Z,98548.59
2019-03-03T12:20:59.996Z,98548.58
2019-03-03T12:23:48.275Z,98535.60
2019-03-03T12:26:40.697Z,98523.31
2019-03-03T12:29:33.411Z,98514.98
2019-03-03T12:32:28.782Z,98516.48
2019-03-03T12:35:12.936Z,98513.63
2019-03-03T12:38:01.197Z,98512.72
2019-03-03T12:40:53.922Z,98510.27
2019-03-03T12:43:34.018Z,98506.19
2019-03-03T12:46:25.568Z,98505.35
2019-03-03T12:49:17.968Z,98501.98
2019-03-03T12:52:19.951Z,98518.12
2019-03-03T12:55:18.330Z,98515.17
2019-03-03T12:58:10.610Z,98514.77
2019-03-03T13:00:58.819Z,98512.98
2019-03-03T13:03:42.671Z,98497.47
2019-03-03T13:06:24.623Z,98493.48
2019-03-03T13:09:13.123Z,98484.03
2019-03-03T13:11:56.982Z,98476.32
2019-03-03T13:14:52.782Z,98472.27
2019-03-03T13:17:50.852Z,98461.95
2019-03-03T13:20:48.206Z,98452.89
2019-03-03T13:23:36.215Z,98447.22
2019-03-03T13:26:18.906Z,98447.09
2019-03-03T13:29:07.017Z,98446.73
2019-03-03T13:31:53.628Z,98432.53
2019-03-03T13:34:41.548Z,98430.50
2019-03-03T13:37:31.128Z,98430.20
2019-03-03T13:40:20.804Z,98431.05
2019-03-03T13:42:59.934Z,98419.73
2019-03-03T13:45:32.752Z,98412.66
2019-03-03T13:48:03.380Z,98407.05
2019-03-03T13:50:34.182Z,98406.88
2019-03-03T13:53:04.922Z,98393.94
2019-03-03T13:55:35.577Z,98397.48
2019-03-03T13:58:05.911Z,98391.50
2019-03-03T14:00:36.888Z,98381.57
2019-03-03T14:03:07.081Z,98378.72
2019-03-03T14:05:37.943Z,98376.38
2019-03-03T14:08:08.228Z,98374.89
2019-03-03T14:10:39.143Z,98378.54
2019-03-03T14:13:09.505Z,98372.37
2019-03-03T14:15:40.037Z,98370.98
2019-03-03T14:18:10.523Z,98369.50
2019-03-03T14:20:40.824Z,98368.61
2019-03-03T14:23:11.095Z,98375.72
2019-03-03T14:25:41.290Z,98377.81
2019-03-03T14:28:11.911Z,98377.33
2019-03-03T14:30:42.135Z,98368.95
2019-03-03T14:33:13.088Z,98366.80
2019-03-03T14:35:43.720Z,98366.67
2019-03-03T14:38:14.247Z,98367.45
2019-03-03T14:40:44.796Z,98366.19
2019-03-03T14:43:15.307Z,98365.33
2019-03-03T14:45:45.512Z,98356.36
2019-03-03T14:48:15.783Z,98351.45
2019-03-03T14:50:46.395Z,98351.88
2019-03-03T14:53:16.914Z,98355.37
2019-03-03T14:55:47.119Z,98354.66
2019-03-03T14:58:17.401Z,98349.54
2019-03-03T15:00:47.724Z,98355.85
2019-03-03T15:03:17.910Z,98351.64
2019-03-03T15:05:48.145Z,98346.61
2019-03-03T15:08:18.440Z,98345.38
2019-03-03T15:10:48.631Z,98339.09
2019-03-03T15:13:18.935Z,98332.32
2019-03-03T15:15:49.551Z,98329.77
2019-03-03T15:18:20.059Z,98326.57
2019-03-03T15:20:51.000Z,98311.69
2019-03-03T15:23:21.253Z,98304.91
2019-03-03T15:25:51.534Z,98295.14
2019-03-03T15:28:21.802Z,98304.66
2019-03-03T15:30:53.016Z,98314.16
2019-03-03T15:33:23.268Z,98318.06
2019-03-03T15:35:53.555Z,98309.80
2019-03-03T15:38:23.828Z,98288.92
2019-03-03T15:40:54.125Z,98268.89
2019-03-03T15:43:24.466Z,98270.92
2019-03-03T15:45:55.733Z,98251.59
2019-03-03T15:48:25.939Z,98230.17
2019-03-03T15:50:56.539Z,98233.98
2019-03-03T15:53:27.721Z,98242.31
2019-03-03T15:55:57.993Z,98238.52
2019-03-03T15:58:28.264Z,98240.50
2019-03-03T16:00:58.637Z,98244.11
2019-03-03T16:03:29.536Z,98238.02
2019-03-03T16:05:59.883Z,98237.66
2019-03-03T16:08:30.071Z,98227.22
2019-03-03T16:11:00.644Z,98231.23
2019-03-03T16:13:30.920Z,98210.97
2019-03-03T16:16:02.206Z,98208.05
2019-03-03T16:18:33.079Z,98219.75
2019-03-03T16:21:03.709Z,98214.17
2019-03-03T16:23:33.921Z,98215.14
2019-03-03T16:26:04.791Z,98202.87
2019-03-03T16:28:35.364Z,98200.38
2019-03-03T16:31:05.547Z,98200.38
2019-03-03T16:33:35.814Z,98192.70
2019-03-03T16:36:06.483Z,98193.34
2019-03-03T16:38:36.671Z,98189.70
2019-03-03T16:41:07.453Z,98193.83
2019-03-03T16:43:38.067Z,98193.33
2019-03-03T16:46:08.318Z,98198.88
2019-03-03T16:48:39.031Z,98189.23
2019-03-03T16:51:09.275Z,98187.56
2019-03-03T16:53:40.579Z,98191.93
2019-03-03T16:56:10.848Z,98193.27
2019-03-03T16:58:42.177Z,98180.43
2019-03-03T17:01:12.470Z,98179.53
2019-03-03T17:03:42.769Z,98174.16
2019-03-03T17:06:13.395Z,98175.83
2019-03-03T17:08:44.120Z,98168.89
2019-03-03T17:11:14.443Z,98172.90
2019-03-03T17:13:44.919Z,98168.69
2019-03-03T17:16:15.235Z,98171.02
2019-03-03T17:18:47.031Z,98171.27
2019-03-03T17:21:17.966Z,98164.48
2019-03-03T17:23:48.703Z,98153.39
2019-03-03T17:26:18.913Z,98153.20
2019-03-03T17:28:49.159Z,98152.50
2019-03-03T17:31:19.414Z,98142.04
2019-03-03T17:33:50.300Z,98140.05
2019-03-03T17:36:20.580Z,98138.44
2019-03-03T17:38:51.664Z,98116.45
2019-03-03T17:41:22.433Z,98127.02
2019-03-03T17:43:53.100Z,98127.11
2019-03-03T17:46:24.457Z,98121.66
2019-03-03T17:48:54.954Z,98121.44
2019-03-03T17:51:25.547Z,98119.08
2019-03-03T17:53:56.180Z,98114.00
2019-03-03T17:56:26.719Z,98116.22
2019-03-03T17:58:57.753Z,98121.94
2019-03-03T18:01:28.397Z,98120.22
2019-03-03T18:03:59.554Z,98132.00
2019-03-03T18:06:38.553Z,98117.92
2019-03-03T18:09:01.820Z,98119.61
2019-03-03T18:11:34.249Z,98119.61
2019-03-03T18:14:04.487Z,98108.09
2019-03-03T18:16:35.244Z,98115.16
2019-03-03T18:19:05.980Z,98110.27
2019-03-03T18:21:36.246Z,98103.20
2019-03-03T18:24:09.488Z,98101.80
2019-03-03T18:26:39.660Z,98100.61
2019-03-03T18:29:10.252Z,98101.36
2019-03-03T18:31:46.452Z,98095.93
2019-03-03T18:34:16.652Z,98089.88
2019-03-03T18:36:47.353Z,98086.72
2019-03-03T18:39:17.731Z,98077.71
2019-03-03T18:41:47.943Z,98072.52
2019-03-03T18:44:18.556Z,98074.55
2019-03-03T18:46:49.512Z,98068.64
2019-03-03T18:49:20.223Z,98062.92
2019-03-03T18:51:50.472Z,98067.19
2019-03-03T18:54:20.863Z,98052.17
2019-03-03T18:56:51.704Z,98041.55
2019-03-03T18:59:22.061Z,98038.62
2019-03-03T19:01:52.628Z,98044.91
2019-03-03T19:04:22.877Z,98037.96
2019-03-03T19:06:53.260Z,98031.97
2019-03-03T19:09:23.620Z,98033.98
2019-03-03T19:11:54.267Z,98032.87
2019-03-03T19:14:28.502Z,98019.52
2019-03-03T19:16:57.520Z,98006.88
2019-03-03T19:19:29.072Z,98010.65
2019-03-03T19:21:59.658Z,98005.23
2019-03-03T19:24:30.276Z,97995.30
2019-03-03T19:27:01.445Z,97997.35
2019-03-03T19:29:32.077Z,97995.28
2019-03-03T19:32:03.039Z,97989.28
2019-03-03T19:34:33.261Z,97987.30
2019-03-03T19:37:03.828Z,97988.63
2019-03-03T19:39:34.497Z,97982.95
2019-03-03T19:42:04.972Z,97971.06
2019-03-03T19:44:35.269Z,97973.61
2019-03-03T19:47:05.728Z,97969.38
2019-03-03T19:49:36.409Z,97967.06
2019-03-03T19:52:07.015Z,97969.88
2019-03-03T19:54:37.641Z,97967.21
2019-03-03T19:57:08.647Z,97966.22
2019-03-03T19:59:38.940Z,97971.94
2019-03-03T20:02:09.221Z,97960.09
2019-03-03T20:04:39.491Z,97958.13
2019-03-03T20:07:10.397Z,97953.20
2019-03-03T20:09:40.638Z,97949.14
2019-03-03T20:12:11.210Z,97952.43
2019-03-03T20:14:42.733Z,97945.05
2019-03-03T20:17:13.667Z,97940.08
2019-03-03T20:19:44.303Z,97944.97
2019-03-03T20:22:15.242Z,97945.84
2019-03-03T20:24:45.898Z,97943.08
2019-03-03T20:27:17.361Z,97943.08
2019-03-03T20:29:48.605Z,97940.59
2019-03-03T20:32:19.281Z,97933.08
2019-03-03T20:34:49.696Z,97941.98
2019-03-03T20:37:20.161Z,97941.19
2019-03-03T20:39:51.120Z,97939.19
2019-03-03T20:42:21.471Z,97934.35
2019-03-03T20:44:51.839Z,97931.80
2019-03-03T20:47:23.492Z,97918.46
2019-03-03T20:49:54.036Z,97920.91
2019-03-03T20:52:24.656Z,97921.53
2019-03-03T20:54:55.257Z,97919.02
2019-03-03T20:57:25.776Z,97905.79
2019-03-03T20:59:56.351Z,97905.08
2019-03-03T21:02:27.003Z,97905.08
2019-03-03T21:04:57.583Z,97904.80
2019-03-03T21:07:28.396Z,97900.45
2019-03-03T21:09:59.295Z,97906.11
2019-03-03T21:12:29.575Z,97901.69
2019-03-03T21:14:59.859Z,97898.77
2019-03-03T21:17:30.858Z,97892.10
2019-03-03T21:20:01.196Z,97903.95
2019-03-03T21:22:31.926Z,97895.39
2019-03-03T21:25:02.522Z,97888.13
2019-03-03T21:27:32.730Z,97888.11
2019-03-03T21:30:03.363Z,97876.02
2019-03-03T21:32:33.803Z,97876.66
2019-03-03T21:35:04.311Z,97875.45
2019-03-03T21:37:34.489Z,97868.27
2019-03-03T21:40:05.220Z,97858.16
2019-03-03T21:42:37.104Z,97862.16
2019-03-03T21:45:08.716Z,97850.92
2019-03-03T21:47:39.594Z,97841.06
2019-03-03T21:50:12.398Z,97833.86
2019-03-03T21:52:46.673Z,97836.59
2019-03-03T21:55:17.432Z,97835.74
2019-03-03T21:57:48.048Z,97817.95
2019-03-03T22:00:26.692Z,97822.48
2019-03-03T22:02:56.970Z,97816.33
2019-03-03T22:05:27.228Z,97822.30
2019-03-03T22:07:57.485Z,97821.19
2019-03-03T22:10:31.828Z,97812.38
2019-03-03T22:13:07.147Z,97806.13
2019-03-03T22:15:37.977Z,97803.34
2019-03-03T22:18:08.594Z,97791.64
2019-03-03T22:20:39.959Z,97790.67
2019-03-03T22:23:10.263Z,97773.73
2019-03-03T22:25:41.545Z,97767.83
2019-03-03T22:28:12.440Z,97767.36
2019-03-03T22:30:42.657Z,97766.88
2019-03-03T22:33:13.186Z,97755.30
2019-03-03T22:35:44.034Z,97757.88
2019-03-03T22:38:15.098Z,97751.95
2019-03-03T22:40:45.668Z,97739.90
2019-03-03T22:43:15.870Z,97748.34
2019-03-03T22:45:46.455Z,97742.55
2019-03-03T22:48:17.407Z,97741.34
2019-03-03T22:50:47.764Z,97737.25
2019-03-03T22:53:18.431Z,97727.48
2019-03-03T22:55:48.995Z,97723.01
2019-03-03T22:58:20.131Z,97722.39
2019-03-03T23:01:10.040Z,97710.95
2019-03-03T23:03:47.569Z,97710.95
2019-03-03T23:06:37.877Z,97710.22
2019-03-03T23:09:39.563Z,97700.41
2019-03-03T23:12:20.531Z,97690.03
2019-03-03T23:15:18.584Z,97684.87
2019-03-03T23:18:16.287Z,97680.53
2019-03-03T23:21:11.753Z,97678.34
2019-03-03T23:24:17.240Z,97671.34
2019-03-03T23:26:48.151Z,97664.11
2019-03-03T23:29:18.449Z,97659.05
2019-03-03T23:31:48.794Z,97650.11
2019-03-03T23:34:19.457Z,97647.95
2019-03-03T23:36:49.694Z,97649.39
2019-03-03T23:39:20.210Z,97651.20
2019-03-03T23:41:50.451Z,97650.95
2019-03-03T23:44:20.736Z,97653.36
2019-03-03T23:46:51.118Z,97643.73
2019-03-03T23:49:21.440Z,97637.92
2019-03-03T23:51:51.731Z,97633.59
2019-03-03T23:54:22.055Z,97624.17
2019-03-03T23:56:52.451Z,97617.16
2019-03-03T23:59:22.748Z,97614.35
